createdAt,value
2017-09-28T00:00:14.724Z,97.80
2017-09-28T00:02:42.291Z,97.70
2017-09-28T00:05:10.089Z,97.70
2017-09-28T00:07:37.844Z,97.80
2017-09-28T00:10:05.359Z,97.80
2017-09-28T00:12:33.041Z,97.80
2017-09-28T00:15:00.544Z,97.60
2017-09-28T00:17:28.284Z,97.70
2017-09-28T00:19:55.809Z,97.70
2017-09-28T00:22:23.892Z,97.80
2017-09-28T00:24:51.392Z,97.80
2017-09-28T00:27:18.907Z,97.80
2017-09-28T00:29:46.420Z,97.80
2017-09-28T00:32:14.708Z,97.70
2017-09-28T00:34:42.984Z,97.60
2017-09-28T00:37:10.507Z,97.60
2017-09-28T00:39:38.037Z,97.60
2017-09-28T00:42:05.548Z,97.60
2017-09-28T00:44:33.064Z,97.80
2017-09-28T00:47:00.572Z,97.70
2017-09-28T00:49:28.092Z,97.50
2017-09-28T00:51:55.753Z,97.50
2017-09-28T00:54:23.267Z,97.50
2017-09-28T00:56:51.281Z,97.50
2017-09-28T00:59:18.795Z,97.60
2017-09-28T01:01:46.303Z,97.60
2017-09-28T01:04:13.960Z,97.60
2017-09-28T01:06:41.734Z,97.60
2017-09-28T01:09:09.354Z,97.70
2017-09-28T01:11:36.951Z,97.60
2017-09-28T01:14:04.457Z,97.50
2017-09-28T01:16:32.185Z,97.70
2017-09-28T01:18:59.908Z,97.70
2017-09-28T01:21:27.622Z,97.70
2017-09-28T01:23:55.129Z,97.70
2017-09-28T01:26:22.913Z,97.60
2017-09-28T01:28:50.687Z,97.60
2017-09-28T01:31:18.208Z,97.80
2017-09-28T01:33:45.721Z,97.70
2017-09-28T01:36:13.999Z,97.70
2017-09-28T01:38:41.730Z,97.70
2017-09-28T01:41:09.489Z,97.90
2017-09-28T01:43:37.008Z,97.90
2017-09-28T01:46:04.515Z,97.70
2017-09-28T01:48:32.161Z,97.80
2017-09-28T01:50:59.923Z,97.70
2017-09-28T01:53:27.435Z,97.70
2017-09-28T01:55:54.957Z,97.80
2017-09-28T01:58:22.611Z,97.80
2017-09-28T02:00:50.379Z,97.70
2017-09-28T02:03:18.127Z,97.80
2017-09-28T02:05:45.659Z,97.90
2017-09-28T02:08:13.864Z,97.80
2017-09-28T02:10:41.397Z,97.80
2017-09-28T02:13:08.904Z,97.90
2017-09-28T02:15:36.649Z,97.90
2017-09-28T02:18:04.932Z,97.90
2017-09-28T02:20:32.481Z,97.90
2017-09-28T02:22:59.993Z,97.80
2017-09-28T02:25:27.696Z,97.80
2017-09-28T02:27:55.463Z,97.80
2017-09-28T02:30:22.984Z,97.70
2017-09-28T02:32:50.493Z,97.90
2017-09-28T02:35:18.142Z,98.00
2017-09-28T02:37:45.907Z,98.00
2017-09-28T02:40:13.667Z,97.90
2017-09-28T02:42:41.428Z,97.90
2017-09-28T02:45:08.941Z,98.00
2017-09-28T02:47:36.652Z,98.10
2017-09-28T02:50:04.408Z,98.00
2017-09-28T02:52:31.925Z,98.10
2017-09-28T02:55:00.241Z,98.00
2017-09-28T02:57:28.016Z,98.10
2017-09-28T02:59:55.532Z,97.90
2017-09-28T03:02:23.228Z,98.10
2017-09-28T03:04:50.744Z,98.00
2017-09-28T03:07:18.255Z,98.00
2017-09-28T03:09:45.764Z,97.90
2017-09-28T03:12:13.363Z,98.00
2017-09-28T03:14:40.863Z,98.10
2017-09-28T03:17:08.581Z,98.10
2017-09-28T03:19:36.093Z,98.10
2017-09-28T03:22:03.804Z,98.00
2017-09-28T03:24:31.318Z,97.80
2017-09-28T03:26:59.023Z,97.90
2017-09-28T03:29:26.537Z,98.00
2017-09-28T03:31:54.056Z,97.90
2017-09-28T03:34:21.701Z,97.90
2017-09-28T03:36:49.352Z,97.90
2017-09-28T03:39:16.921Z,98.00
2017-09-28T03:41:44.440Z,97.80
2017-09-28T03:44:12.142Z,97.60
2017-09-28T03:46:39.900Z,97.90
2017-09-28T03:49:07.673Z,98.00
2017-09-28T03:51:35.423Z,97.70
2017-09-28T03:54:02.940Z,98.30
2017-09-28T03:56:30.460Z,98.00
2017-09-28T03:58:58.109Z,98.00
2017-09-28T04:01:25.617Z,98.00
2017-09-28T04:03:53.323Z,98.00
2017-09-28T04:06:21.085Z,97.90
2017-09-28T04:08:48.856Z,97.90
2017-09-28T04:11:16.614Z,98.00
2017-09-28T04:13:44.561Z,97.70
2017-09-28T04:16:12.060Z,97.90
2017-09-28T04:18:39.575Z,97.90
2017-09-28T04:21:07.096Z,97.90
2017-09-28T04:23:34.632Z,97.80
2017-09-28T04:26:02.307Z,98.00
2017-09-28T04:28:30.042Z,97.90
2017-09-28T04:30:57.556Z,97.80
2017-09-28T04:33:25.075Z,97.90
2017-09-28T04:35:52.721Z,98.20
2017-09-28T04:38:20.228Z,98.00
2017-09-28T04:40:47.755Z,98.10
2017-09-28T04:43:15.396Z,98.00
2017-09-28T04:45:42.899Z,98.00
2017-09-28T04:48:10.613Z,97.90
2017-09-28T04:50:38.128Z,98.20
2017-09-28T04:53:05.668Z,98.10
2017-09-28T04:55:33.958Z,98.00
2017-09-28T04:58:01.465Z,98.00
2017-09-28T05:00:29.125Z,98.00
2017-09-28T05:02:56.663Z,98.10
2017-09-28T05:05:24.343Z,97.90
2017-09-28T05:07:52.118Z,98.10
2017-09-28T05:10:19.628Z,98.10
2017-09-28T05:12:47.946Z,98.00
2017-09-28T05:15:15.705Z,98.10
2017-09-28T05:17:43.215Z,98.10
2017-09-28T05:20:10.732Z,98.50
2017-09-28T05:22:38.257Z,98.60
2017-09-28T05:25:06.452Z,98.40
2017-09-28T05:27:33.952Z,98.30
2017-09-28T05:30:01.583Z,98.20
2017-09-28T05:32:29.132Z,98.20
2017-09-28T05:34:56.665Z,98.30
2017-09-28T05:37:24.172Z,98.30
2017-09-28T05:39:51.820Z,98.60
2017-09-28T05:42:19.465Z,98.10
2017-09-28T05:44:46.985Z,98.10
2017-09-28T05:47:14.789Z,98.00
2017-09-28T05:49:42.553Z,98.00
2017-09-28T05:52:10.294Z,97.80
2017-09-28T05:54:37.806Z,97.80
2017-09-28T05:57:05.523Z,98.00
2017-09-28T05:59:33.304Z,98.10
2017-09-28T06:02:00.815Z,98.50
2017-09-28T06:04:28.330Z,97.80
2017-09-28T06:06:55.846Z,97.90
2017-09-28T06:09:23.395Z,97.70
2017-09-28T06:11:50.923Z,97.90
2017-09-28T06:14:18.652Z,98.00
2017-09-28T06:16:46.419Z,98.30
2017-09-28T06:19:14.366Z,97.80
2017-09-28T06:21:41.880Z,98.00
2017-09-28T06:24:09.378Z,98.00
2017-09-28T06:26:36.896Z,97.90
2017-09-28T06:29:04.444Z,97.90
2017-09-28T06:31:32.093Z,98.10
2017-09-28T06:33:59.620Z,98.10
2017-09-28T06:36:27.304Z,97.90
2017-09-28T06:38:54.823Z,97.70
2017-09-28T06:41:22.328Z,97.80
2017-09-28T06:43:49.848Z,97.90
2017-09-28T06:46:17.563Z,98.00
2017-09-28T06:48:46.010Z,98.00
2017-09-28T06:51:13.535Z,97.90
2017-09-28T06:53:41.336Z,97.80
2017-09-28T06:56:08.856Z,97.80
2017-09-28T06:58:36.536Z,97.60
2017-09-28T07:01:04.040Z,97.70
2017-09-28T07:03:31.577Z,97.80
2017-09-28T07:05:59.094Z,97.80
2017-09-28T07:08:26.857Z,97.80
2017-09-28T07:10:54.448Z,97.70
2017-09-28T07:13:21.952Z,97.80
2017-09-28T07:15:49.672Z,97.80
2017-09-28T07:18:17.185Z,97.80
2017-09-28T07:20:44.715Z,97.60
2017-09-28T07:23:12.388Z,97.70
2017-09-28T07:25:40.113Z,97.70
2017-09-28T07:28:07.616Z,97.50
2017-09-28T07:30:35.132Z,97.50
2017-09-28T07:33:02.639Z,97.50
2017-09-28T07:35:30.180Z,97.60
2017-09-28T07:37:57.717Z,97.60
2017-09-28T07:40:25.226Z,97.60
2017-09-28T07:42:52.800Z,97.80
2017-09-28T07:45:20.382Z,97.80
2017-09-28T07:47:48.150Z,97.90
2017-09-28T07:50:15.904Z,97.80
2017-09-28T07:52:43.673Z,97.70
2017-09-28T07:55:11.207Z,97.90
2017-09-28T07:57:38.864Z,97.70
2017-09-28T08:00:06.628Z,97.90
2017-09-28T08:02:34.264Z,97.80
2017-09-28T08:05:02.816Z,97.40
2017-09-28T08:07:30.317Z,97.40
2017-09-28T08:09:58.012Z,97.20
2017-09-28T08:12:25.774Z,97.40
2017-09-28T08:14:53.286Z,97.30
2017-09-28T08:17:20.979Z,97.40
2017-09-28T08:19:48.776Z,97.10
2017-09-28T08:22:16.398Z,97.30
2017-09-28T08:24:43.966Z,97.00
2017-09-28T08:27:11.474Z,97.10
2017-09-28T08:29:39.199Z,97.20
2017-09-28T08:32:06.714Z,96.90
2017-09-28T08:34:34.224Z,96.90
2017-09-28T08:37:01.880Z,97.10
2017-09-28T08:39:29.640Z,97.10
2017-09-28T08:41:57.143Z,96.90
2017-09-28T08:44:24.735Z,97.10
2017-09-28T08:46:52.284Z,97.20
2017-09-28T08:49:19.801Z,97.40
2017-09-28T08:51:47.516Z,97.30
2017-09-28T08:54:15.044Z,96.90
2017-09-28T08:56:43.351Z,97.10
2017-09-28T08:59:10.870Z,97.10
2017-09-28T09:01:38.495Z,96.90
2017-09-28T09:04:06.052Z,96.90
2017-09-28T09:06:33.816Z,96.80
2017-09-28T09:09:01.352Z,97.00
2017-09-28T09:11:28.855Z,96.80
2017-09-28T09:13:56.405Z,96.70
2017-09-28T09:16:23.948Z,96.90
2017-09-28T09:18:51.466Z,96.50
2017-09-28T09:21:18.976Z,96.70
2017-09-28T09:23:46.625Z,96.50
2017-09-28T09:26:14.392Z,96.70
2017-09-28T09:28:41.891Z,96.50
2017-09-28T09:31:09.612Z,96.50
2017-09-28T09:33:37.119Z,96.50
2017-09-28T09:36:05.453Z,96.50
2017-09-28T09:38:32.959Z,96.60
2017-09-28T09:41:00.480Z,96.40
2017-09-28T09:43:28.092Z,96.50
2017-09-28T09:45:55.599Z,96.50
2017-09-28T09:48:23.124Z,96.40
2017-09-28T09:50:50.632Z,96.20
2017-09-28T09:53:18.225Z,96.00
2017-09-28T09:55:46.011Z,96.10
2017-09-28T09:58:13.525Z,96.30
2017-09-28T10:00:41.232Z,96.40
2017-09-28T10:03:09.011Z,96.60
2017-09-28T10:05:36.763Z,96.00
2017-09-28T10:08:07.203Z,96.00
2017-09-28T10:10:37.481Z,95.70
2017-09-28T10:13:14.329Z,95.80
2017-09-28T10:15:49.308Z,96.00
2017-09-28T10:18:16.850Z,96.00
2017-09-28T10:20:44.352Z,95.50
2017-09-28T10:23:11.991Z,95.60
2017-09-28T10:25:39.694Z,95.40
2017-09-28T10:28:07.201Z,95.30
2017-09-28T10:30:34.772Z,95.30
2017-09-28T10:33:02.283Z,95.10
2017-09-28T10:35:29.804Z,95.10
2017-09-28T10:37:57.328Z,95.10
2017-09-28T10:40:25.116Z,95.40
2017-09-28T10:42:53.053Z,95.70
2017-09-28T10:45:20.624Z,95.90
2017-09-28T10:47:48.128Z,95.70
2017-09-28T10:50:15.837Z,95.60
2017-09-28T10:52:43.719Z,95.90
2017-09-28T10:55:11.215Z,96.20
2017-09-28T10:57:39.703Z,96.20
2017-09-28T11:00:07.240Z,96.20
2017-09-28T11:02:34.749Z,96.20
2017-09-28T11:05:02.290Z,96.20
2017-09-28T11:07:30.687Z,96.20
2017-09-28T11:09:58.277Z,96.10
2017-09-28T11:12:25.811Z,96.20
2017-09-28T11:14:53.359Z,96.30
2017-09-28T11:17:21.097Z,96.40
2017-09-28T11:19:48.588Z,96.40
2017-09-28T11:22:16.167Z,96.70
2017-09-28T11:24:43.935Z,96.60
2017-09-28T11:27:11.457Z,96.80
2017-09-28T11:29:38.962Z,96.70
2017-09-28T11:32:06.472Z,96.60
2017-09-28T11:34:34.085Z,96.40
2017-09-28T11:37:01.831Z,96.40
2017-09-28T11:39:29.344Z,96.40
2017-09-28T11:41:57.564Z,96.70
2017-09-28T11:44:25.124Z,96.70
2017-09-28T11:46:52.889Z,96.50
2017-09-28T11:49:20.412Z,96.10
2017-09-28T11:51:47.925Z,96.80
2017-09-28T11:54:15.560Z,96.40
2017-09-28T11:56:43.069Z,96.60
2017-09-28T11:59:10.786Z,96.40
2017-09-28T12:01:38.300Z,96.40
2017-09-28T12:04:05.956Z,96.40
2017-09-28T12:06:33.477Z,96.70
2017-09-28T12:09:00.980Z,96.70
2017-09-28T12:11:28.696Z,96.70
2017-09-28T12:13:56.216Z,96.60
2017-09-28T12:16:23.912Z,96.50
2017-09-28T12:18:51.425Z,96.70
2017-09-28T12:21:19.019Z,96.60
2017-09-28T12:23:46.527Z,96.70
2017-09-28T12:26:14.341Z,96.80
2017-09-28T12:28:42.101Z,96.70
2017-09-28T12:31:09.627Z,96.90
2017-09-28T12:33:37.128Z,96.90
2017-09-28T12:36:05.088Z,96.90
2017-09-28T12:38:32.596Z,96.90
2017-09-28T12:41:01.232Z,96.90
2017-09-28T12:43:28.740Z,96.80
2017-09-28T12:45:56.424Z,96.80
2017-09-28T12:48:24.044Z,96.60
2017-09-28T12:50:52.600Z,96.90
2017-09-28T12:53:20.653Z,96.80
2017-09-28T12:55:48.171Z,97.10
2017-09-28T12:58:16.064Z,96.80
2017-09-28T13:00:43.592Z,96.60
2017-09-28T13:03:11.100Z,96.80
2017-09-28T13:05:38.885Z,96.80
2017-09-28T13:08:06.610Z,96.80
2017-09-28T13:10:34.126Z,97.00
2017-09-28T13:13:01.847Z,97.10
2017-09-28T13:15:29.400Z,96.80
2017-09-28T13:17:57.715Z,96.80
2017-09-28T13:20:25.236Z,96.80
2017-09-28T13:22:52.746Z,97.00
2017-09-28T13:25:21.236Z,96.90
2017-09-28T13:27:48.737Z,96.90
2017-09-28T13:30:16.272Z,97.00
2017-09-28T13:32:43.972Z,97.00
2017-09-28T13:35:11.508Z,97.10
2017-09-28T13:37:39.180Z,97.00
2017-09-28T13:40:06.942Z,97.00
2017-09-28T13:42:34.703Z,96.90
2017-09-28T13:45:02.469Z,96.90
2017-09-28T13:47:29.996Z,96.80
2017-09-28T13:49:57.720Z,96.90
2017-09-28T13:52:25.243Z,96.80
2017-09-28T13:54:52.941Z,96.90
2017-09-28T13:57:20.456Z,96.90
2017-09-28T13:59:48.147Z,97.10
2017-09-28T14:02:15.676Z,97.20
2017-09-28T14:04:44.307Z,97.20
2017-09-28T14:07:12.020Z,97.00
2017-09-28T14:09:39.526Z,97.00
2017-09-28T14:12:07.263Z,97.30
2017-09-28T14:14:34.799Z,97.40
2017-09-28T14:17:02.353Z,97.50
2017-09-28T14:19:29.939Z,97.50
2017-09-28T14:21:57.712Z,97.60
2017-09-28T14:24:25.466Z,97.50
2017-09-28T14:26:53.228Z,97.70
2017-09-28T14:29:20.746Z,97.60
2017-09-28T14:31:48.445Z,97.60
2017-09-28T14:34:15.960Z,97.60
2017-09-28T14:36:43.682Z,97.60
2017-09-28T14:39:11.184Z,97.50
2017-09-28T14:41:38.704Z,97.40
2017-09-28T14:44:06.215Z,97.50
2017-09-28T14:46:34.103Z,97.50
2017-09-28T14:49:01.624Z,97.50
2017-09-28T14:51:29.325Z,97.30
2017-09-28T14:53:56.843Z,97.30
2017-09-28T14:56:24.725Z,97.40
2017-09-28T14:58:52.225Z,97.50
2017-09-28T15:01:19.764Z,97.30
2017-09-28T15:03:47.302Z,97.40
2017-09-28T15:06:14.864Z,97.50
2017-09-28T15:08:42.389Z,97.30
2017-09-28T15:11:09.915Z,97.40
2017-09-28T15:13:37.452Z,97.40
2017-09-28T15:16:05.128Z,97.60
2017-09-28T15:18:32.669Z,97.40
2017-09-28T15:21:00.248Z,97.10
2017-09-28T15:23:28.012Z,97.50
2017-09-28T15:25:55.540Z,97.40
2017-09-28T15:28:23.069Z,97.00
2017-09-28T15:30:50.573Z,97.00
2017-09-28T15:33:18.220Z,97.20
2017-09-28T15:35:46.011Z,97.10
2017-09-28T15:38:13.945Z,96.90
2017-09-28T15:40:41.444Z,96.90
2017-09-28T15:43:08.968Z,97.00
2017-09-28T15:45:36.480Z,97.00
2017-09-28T15:48:04.204Z,97.20
2017-09-28T15:50:31.976Z,97.00
2017-09-28T15:52:59.499Z,96.90
2017-09-28T15:55:27.012Z,97.00
2017-09-28T15:57:55.301Z,96.90
2017-09-28T16:00:23.020Z,96.90
2017-09-28T16:02:50.544Z,97.10
2017-09-28T16:05:18.048Z,97.30
2017-09-28T16:07:45.695Z,97.30
2017-09-28T16:10:13.460Z,97.40
2017-09-28T16:12:40.974Z,97.10
2017-09-28T16:15:08.684Z,97.00
2017-09-28T16:17:36.447Z,97.00
2017-09-28T16:20:03.975Z,97.20
2017-09-28T16:22:31.605Z,97.10
2017-09-28T16:24:59.120Z,97.10
2017-09-28T16:27:26.632Z,96.90
2017-09-28T16:29:54.320Z,97.00
2017-09-28T16:32:22.103Z,96.90
2017-09-28T16:34:49.873Z,97.00
2017-09-28T16:37:17.644Z,97.10
2017-09-28T16:39:45.169Z,97.10
2017-09-28T16:42:12.809Z,97.40
2017-09-28T16:44:40.312Z,97.30
2017-09-28T16:47:07.843Z,97.30
2017-09-28T16:49:35.923Z,97.20
2017-09-28T16:52:03.530Z,97.30
2017-09-28T16:54:31.398Z,97.30
2017-09-28T16:56:58.918Z,97.30
2017-09-28T16:59:26.454Z,97.40
2017-09-28T17:01:53.971Z,97.60
2017-09-28T17:04:21.509Z,97.50
2017-09-28T17:06:49.312Z,97.50
2017-09-28T17:09:17.025Z,97.60
2017-09-28T17:11:44.555Z,97.60
2017-09-28T17:14:12.064Z,97.70
2017-09-28T17:16:39.631Z,97.90
2017-09-28T17:19:08.052Z,98.40
2017-09-28T17:21:36.583Z,98.00
2017-09-28T17:24:04.117Z,98.00
2017-09-28T17:26:31.676Z,98.00
2017-09-28T17:28:59.192Z,98.10
2017-09-28T17:31:26.877Z,98.20
2017-09-28T17:33:54.707Z,98.20
2017-09-28T17:36:22.262Z,98.30
2017-09-28T17:38:49.754Z,98.20
2017-09-28T17:41:17.258Z,98.30
2017-09-28T17:43:44.793Z,98.30
2017-09-28T17:46:12.558Z,98.50
2017-09-28T17:48:40.338Z,98.50
2017-09-28T17:51:08.064Z,98.50
2017-09-28T17:53:35.844Z,98.60
2017-09-28T17:56:03.384Z,98.60
2017-09-28T17:58:31.067Z,98.70
2017-09-28T18:00:58.704Z,98.70
2017-09-28T18:03:26.292Z,98.60
2017-09-28T18:05:53.824Z,98.80
2017-09-28T18:08:21.483Z,98.70
2017-09-28T18:10:49.004Z,98.80
2017-09-28T18:13:16.723Z,98.80
2017-09-28T18:15:44.515Z,98.80
2017-09-28T18:18:12.038Z,98.80
2017-09-28T18:20:39.555Z,98.70
2017-09-28T18:23:08.328Z,98.90
2017-09-28T18:25:36.748Z,98.90
2017-09-28T18:28:04.268Z,98.80
2017-09-28T18:30:31.788Z,99.00
2017-09-28T18:32:59.325Z,99.00
2017-09-28T18:35:26.920Z,99.00
2017-09-28T18:37:54.442Z,99.00
2017-09-28T18:40:21.957Z,99.00
2017-09-28T18:42:50.248Z,99.20
2017-09-28T18:45:17.788Z,99.20
2017-09-28T18:47:46.212Z,99.10
2017-09-28T18:50:13.728Z,99.10
2017-09-28T18:52:41.264Z,99.10
2017-09-28T18:55:08.803Z,99.20
2017-09-28T18:57:37.000Z,99.30
2017-09-28T19:00:05.479Z,99.30
2017-09-28T19:02:32.996Z,99.60
2017-09-28T19:05:00.576Z,99.30
2017-09-28T19:07:28.087Z,99.30
2017-09-28T19:09:55.641Z,99.30
2017-09-28T19:12:23.252Z,99.30
2017-09-28T19:14:50.791Z,99.40
2017-09-28T19:17:18.312Z,99.50
2017-09-28T19:19:45.827Z,99.50
2017-09-28T19:22:13.492Z,99.50
2017-09-28T19:24:41.024Z,99.50
2017-09-28T19:27:08.545Z,99.60
2017-09-28T19:29:36.060Z,99.50
2017-09-28T19:32:03.659Z,99.60
2017-09-28T19:34:31.178Z,99.60
2017-09-28T19:36:58.692Z,99.60
2017-09-28T19:39:26.201Z,99.80
2017-09-28T19:41:53.768Z,99.80
2017-09-28T19:44:21.520Z,99.90
2017-09-28T19:46:49.284Z,99.80
2017-09-28T19:49:16.832Z,99.80
2017-09-28T19:51:44.504Z,99.80
2017-09-28T19:54:12.018Z,99.80
2017-09-28T19:56:39.708Z,99.90
2017-09-28T19:59:07.259Z,99.90
2017-09-28T20:01:34.758Z,99.90
2017-09-28T20:04:02.388Z,99.90
2017-09-28T20:06:30.181Z,99.90
2017-09-28T20:08:57.702Z,99.90
2017-09-28T20:11:25.384Z,99.90
2017-09-28T20:13:53.165Z,99.90
2017-09-28T20:16:20.690Z,99.90
2017-09-28T20:18:48.379Z,99.90
2017-09-28T20:21:15.913Z,99.90
2017-09-28T20:23:43.613Z,99.90
2017-09-28T20:26:11.125Z,99.90
2017-09-28T20:28:38.815Z,99.90
2017-09-28T20:31:06.333Z,99.90
2017-09-28T20:33:34.036Z,99.90
2017-09-28T20:36:01.536Z,99.90
2017-09-28T20:38:29.061Z,99.90
2017-09-28T20:40:56.663Z,99.90
2017-09-28T20:43:24.183Z,99.90
2017-09-28T20:45:51.920Z,99.90
2017-09-28T20:48:19.636Z,99.90
2017-09-28T20:50:47.173Z,99.90
2017-09-28T20:53:14.983Z,99.90
2017-09-28T20:55:42.492Z,99.90
2017-09-28T20:58:10.310Z,99.90
2017-09-28T21:00:37.834Z,99.90
2017-09-28T21:03:05.531Z,99.90
2017-09-28T21:05:33.126Z,99.90
2017-09-28T21:08:00.646Z,99.90
2017-09-28T21:10:28.173Z,99.90
2017-09-28T21:12:56.464Z,99.90
2017-09-28T21:15:23.984Z,99.90
2017-09-28T21:17:51.623Z,99.90
2017-09-28T21:20:19.146Z,99.90
2017-09-28T21:22:46.665Z,99.90
2017-09-28T21:25:14.304Z,99.90
2017-09-28T21:27:41.830Z,99.90
2017-09-28T21:30:09.409Z,99.90
2017-09-28T21:32:37.015Z,99.90
2017-09-28T21:35:04.529Z,99.90
2017-09-28T21:37:32.107Z,99.90
2017-09-28T21:39:59.698Z,99.90
2017-09-28T21:42:27.400Z,99.90
2017-09-28T21:44:54.909Z,99.90
2017-09-28T21:47:22.613Z,99.90
2017-09-28T21:49:50.125Z,99.90
2017-09-28T21:52:17.835Z,99.90
2017-09-28T21:54:45.348Z,99.90
2017-09-28T21:57:12.863Z,99.90
2017-09-28T21:59:40.529Z,99.90
2017-09-28T22:02:08.048Z,99.90
2017-09-28T22:04:35.760Z,99.90
2017-09-28T22:07:03.288Z,99.90
2017-09-28T22:09:31.296Z,99.90
2017-09-28T22:12:00.316Z,99.90
2017-09-28T22:14:27.836Z,99.90
2017-09-28T22:16:55.496Z,99.90
2017-09-28T22:19:23.135Z,99.90
2017-09-28T22:21:51.370Z,99.90
2017-09-28T22:24:19.080Z,99.90
2017-09-28T22:26:46.583Z,99.90
2017-09-28T22:29:14.096Z,99.90
2017-09-28T22:31:41.617Z,99.90
2017-09-28T22:34:10.152Z,99.90
2017-09-28T22:36:37.671Z,99.90
2017-09-28T22:39:05.367Z,99.90
2017-09-28T22:41:32.888Z,99.90
2017-09-28T22:44:00.564Z,99.90
2017-09-28T22:46:28.358Z,99.90
2017-09-28T22:48:55.885Z,99.90
2017-09-28T22:51:23.398Z,99.90
2017-09-28T22:53:50.903Z,99.90
2017-09-28T22:56:19.192Z,99.90
2017-09-28T22:58:46.859Z,99.90
2017-09-28T23:01:14.386Z,99.90
2017-09-28T23:03:42.088Z,99.90
2017-09-28T23:06:09.633Z,99.90
2017-09-28T23:08:37.137Z,99.90
2017-09-28T23:11:05.682Z,99.90
2017-09-28T23:13:33.196Z,99.90
2017-09-28T23:16:00.761Z,99.90
2017-09-28T23:18:28.333Z,99.90
2017-09-28T23:20:56.119Z,99.90
2017-09-28T23:23:23.883Z,99.90
2017-09-28T23:25:51.418Z,99.90
2017-09-28T23:28:19.112Z,99.90
2017-09-28T23:30:46.631Z,99.90
2017-09-28T23:33:14.323Z,99.90
2017-09-28T23:35:41.838Z,99.90
2017-09-28T23:38:10.054Z,99.90
2017-09-28T23:40:37.617Z,99.90
2017-09-28T23:43:05.380Z,99.90
2017-09-28T23:45:32.891Z,99.90
2017-09-28T23:48:00.576Z,99.90
2017-09-28T23:50:28.088Z,99.90
2017-09-28T23:52:55.614Z,99.90
2017-09-28T23:55:23.280Z,99.90
2017-09-28T23:57:50.884Z,99.90
